Terminal Aerodrome Forecast
Issued by NWS

Home | Current Version | Previous Version | Text Only | Print | Product List | Glossary On
Versions: 1 2 3 4 5 6 7 8 9 10 11 12 13 14 15 16 17 18 19 20 21 22 23 24 25
000
FTUS41 KBUF 291503 AAB
TAFJHW
TAF AMD
KJHW 291503Z 2915/3012 22004KT P6SM BKN090
     FM291900 22007KT P6SM VCSH BKN050
      TEMPO 2920/2923 4SM TSRA BKN040CB
     FM300000 18006KT P6SM VCSH BKN090
     FM300200 18007KT P6SM BKN090
     FM300600 20008KT P6SM BKN035
     FM300800 21007KT P6SM BKN020
      AMD LTD TO CLD VIS AND WIND=

USA.gov is the U.S. government's official web portal to all federal, state and local government web resources and services.